Desmet, Idaho
Current Conditions -  °F | °C
As of 10:53 AM on Sunday 21 Dec 2014 (Local Time) from KPUW Reporting Station
Broken Clouds Broken Clouds  
Wind Chill: 39°   Ceiling: 4600
Heat Index: 46°   Visibility: 10mi
Dew Point: 40°   Wind: 16mph
Humidity: 79%   Direction: 250°WSW
Pressure: 29.83"   Gusts: NA
Location:  47.15°N, 116.92°W
Report Text: KPUW 211853Z AUTO 25014KT 10SM BKN046 BKN055 08/04 A2983 RMK AO2 SLP111 T00780044
Loading
Personal Weather Stations






























Interactive Weather Map New forecast layout! Learn more

10-Day Weather Forecast

Advertisements
Track Severe Weather on mobile